createdAt,value
2023-02-08T00:01:26.338Z,102515.31
2023-02-08T00:03:53.203Z,102520.84
2023-02-08T00:06:19.725Z,102512.63
2023-02-08T00:08:46.719Z,102516.53
2023-02-08T00:11:13.113Z,102506.09
2023-02-08T00:13:42.266Z,102516.34
2023-02-08T00:16:09.731Z,102499.28
2023-02-08T00:18:36.091Z,102509.50
2023-02-08T00:21:11.241Z,102505.19
2023-02-08T00:23:37.748Z,102499.81
2023-02-08T00:26:04.764Z,102504.09
2023-02-08T00:28:31.159Z,102509.91
2023-02-08T00:30:58.303Z,102498.72
2023-02-08T00:33:24.891Z,102503.50
2023-02-08T00:35:51.391Z,102508.88
2023-02-08T00:38:17.777Z,102508.22
2023-02-08T00:40:44.221Z,102504.91
2023-02-08T00:43:10.631Z,102504.22
2023-02-08T00:45:36.995Z,102507.09
2023-02-08T00:48:03.420Z,102511.50
2023-02-08T00:50:29.802Z,102509.22
2023-02-08T00:52:56.197Z,102506.19
2023-02-08T00:55:22.616Z,102511.81
2023-02-08T00:57:48.977Z,102510.69
2023-02-08T01:00:15.481Z,102509.13
2023-02-08T01:02:42.141Z,102504.59
2023-02-08T01:05:08.843Z,102509.59
2023-02-08T01:07:38.447Z,102509.41
2023-02-08T01:10:06.338Z,102518.38
2023-02-08T01:12:32.884Z,102504.91
2023-02-08T01:14:59.229Z,102510.13
2023-02-08T01:17:25.638Z,102501.44
2023-02-08T01:19:51.985Z,102506.53
2023-02-08T01:22:18.403Z,102506.53
2023-02-08T01:24:44.801Z,102505.81
2023-02-08T01:27:11.149Z,102496.03
2023-02-08T01:29:37.482Z,102510.13
2023-02-08T01:32:04.042Z,102504.72
2023-02-08T01:34:30.424Z,102502.31
2023-02-08T01:36:56.818Z,102499.28
2023-02-08T01:39:23.219Z,102506.81
2023-02-08T01:41:49.629Z,102500.88
2023-02-08T01:44:17.549Z,102494.59
2023-02-08T01:46:50.988Z,102496.00
2023-02-08T01:49:36.703Z,102487.09
2023-02-08T01:52:14.343Z,102487.63
2023-02-08T01:54:49.301Z,102487.59
2023-02-08T01:57:16.501Z,102483.41
2023-02-08T01:59:49.378Z,102483.94
2023-02-08T02:02:18.944Z,102486.50
2023-02-08T02:04:45.818Z,102477.41
2023-02-08T02:07:13.427Z,102477.72
2023-02-08T02:09:47.396Z,102468.63
2023-02-08T02:12:14.513Z,102464.63
2023-02-08T02:14:42.233Z,102473.66
2023-02-08T02:17:12.294Z,102469.84
2023-02-08T02:19:55.642Z,102473.66
2023-02-08T02:22:31.167Z,102465.88
2023-02-08T02:25:03.385Z,102462.56
2023-02-08T02:28:04.383Z,102472.34
2023-02-08T02:31:00.462Z,102470.16
2023-02-08T02:33:53.634Z,102470.63
2023-02-08T02:36:35.070Z,102469.34
2023-02-08T02:39:25.017Z,102468.63
2023-02-08T02:42:24.276Z,102466.31
2023-02-08T02:45:31.872Z,102471.91
2023-02-08T02:48:10.214Z,102476.91
2023-02-08T02:50:55.136Z,102475.47
2023-02-08T02:53:59.262Z,102458.22
2023-02-08T02:56:37.115Z,102465.28
2023-02-08T02:59:06.740Z,102462.03
2023-02-08T03:01:33.884Z,102464.59
2023-02-08T03:04:00.955Z,102468.09
2023-02-08T03:06:33.345Z,102465.78
2023-02-08T03:09:22.003Z,102462.41
2023-02-08T03:11:58.841Z,102456.81
2023-02-08T03:14:35.438Z,102460.59
2023-02-08T03:17:33.886Z,102455.78
2023-02-08T03:20:06.928Z,102461.09
2023-02-08T03:22:51.132Z,102462.09
2023-02-08T03:25:31.896Z,102468.69
2023-02-08T03:28:23.998Z,102465.34
2023-02-08T03:31:02.316Z,102470.69
2023-02-08T03:33:41.361Z,102466.00
2023-02-08T03:36:37.217Z,102468.09
2023-02-08T03:39:09.655Z,102466.09
2023-02-08T03:41:40.081Z,102462.28
2023-02-08T03:44:09.670Z,102472.69
2023-02-08T03:46:41.428Z,102479.47
2023-02-08T03:49:13.758Z,102482.00
2023-02-08T03:51:40.752Z,102484.91
2023-02-08T03:54:12.780Z,102486.31
2023-02-08T03:56:46.248Z,102473.47
2023-02-08T03:59:20.934Z,102473.13
2023-02-08T04:01:57.692Z,102469.09
2023-02-08T04:04:26.418Z,102474.56
2023-02-08T04:06:53.637Z,102471.06
2023-02-08T04:09:20.038Z,102461.69
2023-02-08T04:11:46.370Z,102459.81
2023-02-08T04:14:12.831Z,102454.50
2023-02-08T04:16:39.362Z,102463.19
2023-02-08T04:19:05.764Z,102456.53
2023-02-08T04:21:33.233Z,102458.09
2023-02-08T04:23:59.586Z,102463.22
2023-02-08T04:26:25.991Z,102457.19
2023-02-08T04:28:52.413Z,102459.38
2023-02-08T04:31:18.976Z,102470.00
2023-02-08T04:33:45.449Z,102472.78
2023-02-08T04:36:12.118Z,102469.00
2023-02-08T04:38:38.537Z,102463.81
2023-02-08T04:41:05.093Z,102457.69
2023-02-08T04:43:31.584Z,102455.44
2023-02-08T04:45:58.039Z,102447.59
2023-02-08T04:48:24.543Z,102449.84
2023-02-08T04:50:51.008Z,102450.84
2023-02-08T04:53:17.518Z,102450.88
2023-02-08T04:55:43.841Z,102442.31
2023-02-08T04:58:10.399Z,102449.88
2023-02-08T05:00:36.850Z,102442.50
2023-02-08T05:03:04.550Z,102433.19
2023-02-08T05:05:31.202Z,102439.28
2023-02-08T05:08:00.028Z,102434.00
2023-02-08T05:10:26.815Z,102431.63
2023-02-08T05:12:53.474Z,102443.31
2023-02-08T05:15:19.867Z,102437.19
2023-02-08T05:17:46.384Z,102443.06
2023-02-08T05:20:14.434Z,102439.31
2023-02-08T05:22:40.894Z,102442.47
2023-02-08T05:25:08.023Z,102436.78
2023-02-08T05:27:35.077Z,102437.38
2023-02-08T05:30:01.874Z,102434.38
2023-02-08T05:32:28.313Z,102439.75
2023-02-08T05:34:54.768Z,102445.25
2023-02-08T05:37:21.204Z,102436.44
2023-02-08T05:39:47.576Z,102441.03
2023-02-08T05:42:13.963Z,102437.25
2023-02-08T05:44:40.365Z,102443.00
2023-02-08T05:47:06.797Z,102449.28
2023-02-08T05:49:33.219Z,102447.06
2023-02-08T05:51:59.608Z,102449.28
2023-02-08T05:54:26.087Z,102458.50
2023-02-08T05:56:52.476Z,102451.66
2023-02-08T05:59:18.826Z,102458.06
2023-02-08T06:01:45.326Z,102465.84
2023-02-08T06:04:11.779Z,102457.50
2023-02-08T06:06:38.250Z,102461.09
2023-02-08T06:09:04.958Z,102472.81
2023-02-08T06:11:31.504Z,102473.41
2023-02-08T06:13:57.885Z,102470.88
2023-02-08T06:16:24.265Z,102473.19
2023-02-08T06:18:50.628Z,102464.34
2023-02-08T06:21:16.973Z,102465.75
2023-02-08T06:23:43.385Z,102471.41
2023-02-08T06:26:09.728Z,102471.34
2023-02-08T06:28:36.109Z,102471.56
2023-02-08T06:31:02.533Z,102482.56
2023-02-08T06:33:29.046Z,102475.97
2023-02-08T06:35:55.482Z,102479.78
2023-02-08T06:38:22.168Z,102481.13
2023-02-08T06:40:49.589Z,102481.00
2023-02-08T06:43:16.525Z,102481.00
2023-02-08T06:45:46.479Z,102475.06
2023-02-08T06:48:13.293Z,102487.53
2023-02-08T06:50:40.175Z,102483.72
2023-02-08T06:53:06.743Z,102484.91
2023-02-08T06:55:33.076Z,102484.53
2023-02-08T06:57:59.419Z,102485.34
2023-02-08T07:00:25.840Z,102477.31
2023-02-08T07:02:52.578Z,102475.53
2023-02-08T07:05:19.225Z,102480.47
2023-02-08T07:07:45.840Z,102482.72
2023-02-08T07:10:12.287Z,102475.53
2023-02-08T07:12:38.615Z,102482.91
2023-02-08T07:15:05.216Z,102478.88
2023-02-08T07:17:31.588Z,102475.44
2023-02-08T07:19:57.986Z,102473.47
2023-02-08T07:22:24.373Z,102476.88
2023-02-08T07:24:50.733Z,102479.72
2023-02-08T07:27:17.209Z,102479.19
2023-02-08T07:29:43.644Z,102475.34
2023-02-08T07:32:10.154Z,102462.94
2023-02-08T07:34:37.828Z,102471.31
2023-02-08T07:37:04.712Z,102480.09
2023-02-08T07:39:31.409Z,102471.16
2023-02-08T07:41:58.681Z,102469.66
2023-02-08T07:44:25.365Z,102464.34
2023-02-08T07:46:51.768Z,102461.47
2023-02-08T07:49:18.129Z,102462.94
2023-02-08T07:51:44.629Z,102462.53
2023-02-08T07:54:11.037Z,102457.25
2023-02-08T07:56:37.530Z,102460.63
2023-02-08T07:59:03.888Z,102446.59
2023-02-08T08:01:30.376Z,102450.91
2023-02-08T08:03:56.837Z,102450.31
2023-02-08T08:06:23.645Z,102445.19
2023-02-08T08:08:51.008Z,102452.22
2023-02-08T08:11:18.920Z,102447.84
2023-02-08T08:13:45.338Z,102444.19
2023-02-08T08:16:12.259Z,102455.16
2023-02-08T08:18:39.129Z,102461.06
2023-02-08T08:21:05.774Z,102454.88
2023-02-08T08:23:33.256Z,102458.28
2023-02-08T08:26:00.315Z,102456.66
2023-02-08T08:28:27.072Z,102462.16
2023-02-08T08:30:53.628Z,102461.88
2023-02-08T08:33:20.163Z,102465.91
2023-02-08T08:35:47.110Z,102457.50
2023-02-08T08:38:13.592Z,102452.19
2023-02-08T08:40:40.246Z,102462.03
2023-02-08T08:43:06.677Z,102466.00
2023-02-08T08:45:33.228Z,102457.28
2023-02-08T08:48:01.193Z,102457.84
2023-02-08T08:50:27.585Z,102454.63
2023-02-08T08:52:53.910Z,102451.44
2023-02-08T08:55:20.306Z,102440.88
2023-02-08T08:57:46.697Z,102448.03
2023-02-08T09:00:13.569Z,102444.09
2023-02-08T09:02:39.953Z,102436.09
2023-02-08T09:05:08.022Z,102433.53
2023-02-08T09:07:35.160Z,102443.63
2023-02-08T09:10:01.630Z,102430.75
2023-02-08T09:12:28.670Z,102437.06
2023-02-08T09:14:55.025Z,102438.84
2023-02-08T09:17:21.585Z,102438.34
2023-02-08T09:19:47.930Z,102435.69
2023-02-08T09:22:14.390Z,102442.44
2023-02-08T09:24:40.851Z,102441.34
2023-02-08T09:27:07.300Z,102434.03
2023-02-08T09:29:34.304Z,102426.59
2023-02-08T09:32:00.775Z,102431.56
2023-02-08T09:34:27.798Z,102434.03
2023-02-08T09:36:54.186Z,102438.16
2023-02-08T09:39:23.731Z,102428.72
2023-02-08T09:41:59.776Z,102431.88
2023-02-08T09:44:47.242Z,102425.34
2023-02-08T09:47:28.053Z,102424.38
2023-02-08T09:50:01.769Z,102430.72
2023-02-08T09:52:55.353Z,102418.72
2023-02-08T09:55:33.217Z,102419.78
2023-02-08T09:58:03.137Z,102418.47
2023-02-08T10:00:51.238Z,102413.28
2023-02-08T10:03:27.463Z,102410.06
2023-02-08T10:05:54.121Z,102406.66
2023-02-08T10:08:20.906Z,102425.78
2023-02-08T10:11:19.698Z,102415.94
2023-02-08T10:13:55.028Z,102426.88
2023-02-08T10:16:42.538Z,102422.13
2023-02-08T10:19:39.178Z,102415.88
2023-02-08T10:22:24.162Z,102425.53
2023-02-08T10:25:09.414Z,102426.88
2023-02-08T10:27:44.770Z,102423.34
2023-02-08T10:30:35.720Z,102420.50
2023-02-08T10:33:20.784Z,102421.47
2023-02-08T10:35:49.489Z,102426.75
2023-02-08T10:38:44.178Z,102429.34
2023-02-08T10:41:21.908Z,102415.97
2023-02-08T10:44:02.317Z,102410.78
2023-02-08T10:46:38.116Z,102414.84
2023-02-08T10:49:33.272Z,102405.91
2023-02-08T10:51:59.788Z,102412.16
2023-02-08T10:54:26.189Z,102406.25
2023-02-08T10:57:03.084Z,102395.72
2023-02-08T10:59:46.136Z,102393.97
2023-02-08T11:02:22.246Z,102386.63
2023-02-08T11:05:13.158Z,102381.69
2023-02-08T11:07:40.502Z,102384.84
2023-02-08T11:10:14.499Z,102377.03
2023-02-08T11:12:42.137Z,102367.13
2023-02-08T11:15:23.737Z,102365.03
2023-02-08T11:17:55.675Z,102369.81
2023-02-08T11:20:38.792Z,102369.81
2023-02-08T11:23:17.565Z,102369.50
2023-02-08T11:25:44.124Z,102365.50
2023-02-08T11:28:30.979Z,102363.81
2023-02-08T11:31:01.125Z,102361.41
2023-02-08T11:33:31.646Z,102355.25
2023-02-08T11:36:07.462Z,102364.19
2023-02-08T11:38:35.845Z,102356.94
2023-02-08T11:41:05.691Z,102351.66
2023-02-08T11:43:35.913Z,102363.03
2023-02-08T11:46:04.932Z,102345.91
2023-02-08T11:48:51.600Z,102343.31
2023-02-08T11:51:37.455Z,102344.16
2023-02-08T11:54:05.680Z,102340.69
2023-02-08T11:56:34.347Z,102349.28
2023-02-08T11:59:06.561Z,102340.84
2023-02-08T12:01:38.314Z,102334.09
2023-02-08T12:04:07.910Z,102331.47
2023-02-08T12:07:11.325Z,102327.41
2023-02-08T12:09:52.524Z,102325.97
2023-02-08T12:12:33.813Z,102322.59
2023-02-08T12:15:18.656Z,102320.09
2023-02-08T12:18:03.642Z,102309.19
2023-02-08T12:20:40.767Z,102294.84
2023-02-08T12:23:35.560Z,102306.91
2023-02-08T12:26:20.011Z,102295.72
2023-02-08T12:29:06.142Z,102300.13
2023-02-08T12:32:05.438Z,102293.75
2023-02-08T12:34:50.003Z,102284.03
2023-02-08T12:38:04.451Z,102290.97
2023-02-08T12:40:49.744Z,102287.53
2023-02-08T12:43:50.001Z,102285.38
2023-02-08T12:46:40.230Z,102284.16
2023-02-08T12:49:28.925Z,102280.28
2023-02-08T12:52:13.569Z,102272.25
2023-02-08T12:54:45.681Z,102270.16
2023-02-08T12:57:15.913Z,102265.00
2023-02-08T12:59:49.548Z,102258.25
2023-02-08T13:02:29.550Z,102257.66
2023-02-08T13:05:00.183Z,102256.09
2023-02-08T13:07:34.224Z,102254.69
2023-02-08T13:10:18.560Z,102258.41
2023-02-08T13:12:51.543Z,102258.00
2023-02-08T13:15:31.052Z,102246.03
2023-02-08T13:18:01.311Z,102245.00
2023-02-08T13:20:50.993Z,102233.59
2023-02-08T13:23:26.763Z,102225.38
2023-02-08T13:25:59.963Z,102240.03
2023-02-08T13:28:27.489Z,102228.19
2023-02-08T13:31:04.978Z,102222.78
2023-02-08T13:34:00.484Z,102215.94
2023-02-08T13:36:34.981Z,102206.56
2023-02-08T13:39:05.270Z,102202.47
2023-02-08T13:41:33.606Z,102195.72
2023-02-08T13:44:09.157Z,102198.25
2023-02-08T13:46:43.715Z,102192.25
2023-02-08T13:49:48.386Z,102199.03
2023-02-08T13:52:46.382Z,102192.22
2023-02-08T13:55:28.690Z,102188.53
2023-02-08T13:57:57.376Z,102179.13
2023-02-08T14:00:29.887Z,102182.44
2023-02-08T14:03:04.320Z,102176.47
2023-02-08T14:05:42.851Z,102176.13
2023-02-08T14:08:21.148Z,102172.16
2023-02-08T14:11:01.699Z,102173.84
2023-02-08T14:13:34.892Z,102175.78
2023-02-08T14:16:32.600Z,102172.69
2023-02-08T14:19:05.377Z,102179.59
2023-02-08T14:21:36.479Z,102175.16
2023-02-08T14:24:06.491Z,102174.09
2023-02-08T14:26:33.548Z,102179.44
2023-02-08T14:29:02.897Z,102169.72
2023-02-08T14:31:38.985Z,102160.63
2023-02-08T14:34:06.396Z,102164.09
2023-02-08T14:36:36.533Z,102162.50
2023-02-08T14:39:08.253Z,102167.53
2023-02-08T14:42:00.026Z,102161.28
2023-02-08T14:44:38.632Z,102157.44
2023-02-08T14:47:12.647Z,102161.03
2023-02-08T14:49:44.819Z,102151.09
2023-02-08T14:52:21.709Z,102155.56
2023-02-08T14:55:02.570Z,102141.47
2023-02-08T14:57:36.508Z,102147.75
2023-02-08T15:00:16.596Z,102131.72
2023-02-08T15:02:45.964Z,102130.75
2023-02-08T15:05:22.126Z,102128.03
2023-02-08T15:07:54.989Z,102124.44
2023-02-08T15:10:23.538Z,102119.09
2023-02-08T15:12:54.739Z,102114.13
2023-02-08T15:15:45.917Z,102107.16
2023-02-08T15:18:19.913Z,102112.72
2023-02-08T15:20:55.854Z,102107.56
2023-02-08T15:23:23.941Z,102110.47
2023-02-08T15:26:05.184Z,102104.31
2023-02-08T15:28:34.894Z,102102.50
2023-02-08T15:31:14.192Z,102102.50
2023-02-08T15:33:45.323Z,102101.38
2023-02-08T15:36:33.163Z,102105.97
2023-02-08T15:39:03.701Z,102096.59
2023-02-08T15:41:34.232Z,102092.28
2023-02-08T15:44:25.269Z,102093.19
2023-02-08T15:49:35.544Z,102101.47
2023-02-08T15:52:03.323Z,102084.66
2023-02-08T15:54:29.864Z,102085.41
2023-02-08T15:57:01.547Z,102083.56
2023-02-08T15:59:32.634Z,102079.63
2023-02-08T16:02:09.370Z,102076.81
2023-02-08T16:04:43.381Z,102088.78
2023-02-08T16:07:23.464Z,102080.06
2023-02-08T16:09:50.294Z,102085.94
2023-02-08T16:12:22.546Z,102075.31
2023-02-08T16:14:52.779Z,102074.88
2023-02-08T16:17:42.600Z,102080.78
2023-02-08T16:20:22.529Z,102084.03
2023-02-08T16:23:18.297Z,102082.44
2023-02-08T16:25:45.617Z,102084.88
2023-02-08T16:28:27.803Z,102079.00
2023-02-08T16:30:57.360Z,102084.59
2023-02-08T16:33:24.389Z,102078.50
2023-02-08T16:35:51.749Z,102071.63
2023-02-08T16:38:23.349Z,102076.47
2023-02-08T16:40:54.641Z,102075.91
2023-02-08T16:43:29.345Z,102072.59
2023-02-08T16:46:18.869Z,102067.66
2023-02-08T16:48:49.724Z,102068.88
2023-02-08T16:51:21.763Z,102063.09
2023-02-08T16:53:50.724Z,102077.59
2023-02-08T16:56:17.438Z,102074.91
2023-02-08T16:58:43.812Z,102082.41
2023-02-08T17:01:12.773Z,102074.72
2023-02-08T17:03:39.505Z,102088.16
2023-02-08T17:06:06.448Z,102090.66
2023-02-08T17:08:35.702Z,102087.69
2023-02-08T17:11:02.127Z,102097.09
2023-02-08T17:13:28.442Z,102083.63
2023-02-08T17:15:55.079Z,102087.81
2023-02-08T17:18:21.528Z,102082.66
2023-02-08T17:20:48.134Z,102079.31
2023-02-08T17:23:15.784Z,102084.22
2023-02-08T17:25:43.314Z,102083.84
2023-02-08T17:28:17.071Z,102080.97
2023-02-08T17:30:44.728Z,102087.72
2023-02-08T17:33:20.508Z,102093.13
2023-02-08T17:35:49.457Z,102098.00
2023-02-08T17:38:16.494Z,102087.78
2023-02-08T17:40:43.526Z,102084.63
2023-02-08T17:43:11.322Z,102093.03
2023-02-08T17:45:39.623Z,102098.44
2023-02-08T17:48:07.084Z,102101.09
2023-02-08T17:50:33.859Z,102098.31
2023-02-08T17:53:00.241Z,102100.44
2023-02-08T17:55:26.706Z,102110.34
2023-02-08T17:57:53.662Z,102100.72
2023-02-08T18:00:23.682Z,102109.72
2023-02-08T18:02:52.805Z,102097.41
2023-02-08T18:05:22.737Z,102097.50
2023-02-08T18:07:50.237Z,102096.78
2023-02-08T18:10:16.695Z,102093.38
2023-02-08T18:12:43.603Z,102101.22
2023-02-08T18:15:13.959Z,102101.34
2023-02-08T18:17:40.883Z,102098.22
2023-02-08T18:20:08.708Z,102093.47
2023-02-08T18:22:35.420Z,102101.28
2023-02-08T18:25:02.076Z,102103.50
2023-02-08T18:27:28.425Z,102095.66
2023-02-08T18:29:54.961Z,102094.84
2023-02-08T18:32:22.040Z,102091.06
2023-02-08T18:34:49.651Z,102094.22
2023-02-08T18:37:16.432Z,102089.78
2023-02-08T18:39:43.012Z,102085.91
2023-02-08T18:42:09.341Z,102087.25
2023-02-08T18:44:41.530Z,102085.53
2023-02-08T18:47:09.143Z,102078.50
2023-02-08T18:49:40.735Z,102083.84
2023-02-08T18:52:12.174Z,102090.84
2023-02-08T18:54:39.685Z,102085.91
2023-02-08T18:57:09.426Z,102088.63
2023-02-08T18:59:36.103Z,102083.91
2023-02-08T19:02:02.608Z,102081.56
2023-02-08T19:04:29.496Z,102089.16
2023-02-08T19:06:56.028Z,102079.47
2023-02-08T19:09:22.395Z,102085.97
2023-02-08T19:11:48.853Z,102086.41
2023-02-08T19:14:15.877Z,102097.56
2023-02-08T19:16:43.114Z,102095.03
2023-02-08T19:19:10.207Z,102088.97
2023-02-08T19:21:36.830Z,102094.66
2023-02-08T19:24:03.702Z,102084.56
2023-02-08T19:26:33.133Z,102100.03
2023-02-08T19:29:03.100Z,102097.56
2023-02-08T19:31:30.829Z,102094.50
2023-02-08T19:33:59.697Z,102094.00
2023-02-08T19:36:29.502Z,102092.47
2023-02-08T19:38:57.130Z,102091.13
2023-02-08T19:41:33.314Z,102097.88
2023-02-08T19:44:03.799Z,102094.41
2023-02-08T19:46:31.536Z,102088.69
2023-02-08T19:49:00.190Z,102076.00
2023-02-08T19:51:28.379Z,102085.13
2023-02-08T19:53:56.874Z,102080.16
2023-02-08T19:56:23.481Z,102081.28
2023-02-08T19:58:50.188Z,102085.25
2023-02-08T20:01:20.066Z,102084.22
2023-02-08T20:03:48.014Z,102079.78
2023-02-08T20:06:24.231Z,102076.41
2023-02-08T20:08:51.023Z,102076.59
2023-02-08T20:11:26.592Z,102073.66
2023-02-08T20:13:54.330Z,102066.63
2023-02-08T20:16:22.070Z,102075.84
2023-02-08T20:18:49.469Z,102075.97
2023-02-08T20:21:17.305Z,102081.88
2023-02-08T20:23:44.522Z,102084.09
2023-02-08T20:26:14.489Z,102080.34
2023-02-08T20:28:47.884Z,102071.88
2023-02-08T20:31:21.405Z,102076.25
2023-02-08T20:33:48.447Z,102067.00
2023-02-08T20:36:18.148Z,102070.66
2023-02-08T20:38:44.865Z,102067.59
2023-02-08T20:41:13.949Z,102077.59
2023-02-08T20:43:42.589Z,102073.03
2023-02-08T20:46:13.953Z,102073.13
2023-02-08T20:48:40.597Z,102081.84
2023-02-08T20:51:12.742Z,102086.03
2023-02-08T20:53:41.204Z,102077.56
2023-02-08T20:56:10.901Z,102082.00
2023-02-08T20:58:38.285Z,102076.22
2023-02-08T21:01:12.186Z,102071.00
2023-02-08T21:03:38.556Z,102071.09
2023-02-08T21:06:15.406Z,102074.19
2023-02-08T21:08:42.678Z,102066.00
2023-02-08T21:11:09.981Z,102079.47
2023-02-08T21:13:36.855Z,102078.91
2023-02-08T21:16:09.874Z,102072.41
2023-02-08T21:18:37.166Z,102065.44
2023-02-08T21:21:08.177Z,102070.59
2023-02-08T21:23:35.900Z,102054.56
2023-02-08T21:26:04.892Z,102059.44
2023-02-08T21:28:31.672Z,102063.53
2023-02-08T21:31:00.925Z,102065.63
2023-02-08T21:33:28.073Z,102065.47
2023-02-08T21:35:54.719Z,102064.09
2023-02-08T21:38:21.457Z,102059.72
2023-02-08T21:40:48.091Z,102052.91
2023-02-08T21:43:14.515Z,102047.25
2023-02-08T21:45:41.061Z,102053.84
2023-02-08T21:48:07.500Z,102057.41
2023-02-08T21:50:52.181Z,102051.56
2023-02-08T21:53:53.705Z,102042.59
2023-02-08T21:56:20.259Z,102051.47
2023-02-08T21:58:46.620Z,102049.88
2023-02-08T22:01:13.039Z,102047.34
2023-02-08T22:03:39.418Z,102046.91
2023-02-08T22:06:06.104Z,102039.25
2023-02-08T22:08:32.557Z,102040.34
2023-02-08T22:11:04.544Z,102036.34
2023-02-08T22:13:34.130Z,102044.88
2023-02-08T22:16:02.273Z,102041.56
2023-02-08T22:18:28.672Z,102037.25
2023-02-08T22:20:55.066Z,102027.00
2023-02-08T22:23:21.764Z,102028.41
2023-02-08T22:25:48.188Z,102040.09
2023-02-08T22:28:14.660Z,102029.91
2023-02-08T22:30:41.193Z,102030.53
2023-02-08T22:33:07.768Z,102022.84
2023-02-08T22:35:34.194Z,102031.59
2023-02-08T22:38:00.669Z,102019.22
2023-02-08T22:40:27.044Z,102027.91
2023-02-08T22:42:53.485Z,102029.13
2023-02-08T22:45:20.047Z,102024.81
2023-02-08T22:47:46.402Z,102019.25
2023-02-08T22:50:13.183Z,102020.06
2023-02-08T22:52:39.576Z,102025.00
2023-02-08T22:55:06.631Z,102024.44
2023-02-08T22:57:34.705Z,102020.19
2023-02-08T23:00:01.190Z,102027.41
2023-02-08T23:02:27.774Z,102014.97
2023-02-08T23:04:54.272Z,102016.41
2023-02-08T23:07:20.786Z,102014.56
2023-02-08T23:09:47.761Z,102015.50
2023-02-08T23:12:14.531Z,102018.69
2023-02-08T23:14:40.869Z,102013.16
2023-02-08T23:17:08.012Z,102014.28
2023-02-08T23:19:34.445Z,102022.41
2023-02-08T23:22:00.846Z,102025.25
2023-02-08T23:24:27.877Z,102020.41
2023-02-08T23:26:54.343Z,102026.50
2023-02-08T23:29:20.716Z,102027.84
2023-02-08T23:31:47.209Z,102025.25
2023-02-08T23:34:13.845Z,102026.13
2023-02-08T23:36:40.329Z,102029.63
2023-02-08T23:39:06.883Z,102029.28
2023-02-08T23:41:33.300Z,102033.16
2023-02-08T23:43:59.760Z,102023.66
2023-02-08T23:46:28.372Z,102020.63
2023-02-08T23:48:55.484Z,102032.56
2023-02-08T23:51:24.144Z,102031.34
2023-02-08T23:53:51.785Z,102031.56
2023-02-08T23:56:23.112Z,102031.13
2023-02-08T23:58:52.125Z,102032.03
